Russellville, Vermont
Current Conditions -  °F | °C
As of 8:35 AM on Thursday 23 Oct 2014 (Local Time) from KRUT Reporting Station
Overcast Overcast  
Wind Chill:   Ceiling: 2000
Heat Index:   Visibility: 10mi
Dew Point:   Wind: 14mph
Humidity: 87%   Direction: 330°NNW
Pressure: 29.86"   Gusts: 20mph
Location:  43.5432°N, 72.8545°W
Report Text: KRUT 231235Z 33012G17KT 10SM OVC020 06/04 A2986 RMK AO1
Loading
Personal Weather Stations






























Interactive Weather Map
Tropical Storm Tracking
New forecast layout! Learn more

10-Day Weather Forecast

Advertisements
Track Severe Weather on mobile